Time;durP1;ratioP1;P1;durP2;ratioP2;P2;SDS_P1;SDS_P2;PMS_P1;PMS_P2;Temp;Humidity;BMP_temperature;BMP_pressure;BME280_temperature;BME280_humidity;BME280_pressure;Samples;Min_cycle;Max_cycle;Signal;HPM_P1;HPM_P2
2021/04/29 00:01:47;;;;;;;12.60;6.93;;;13.30;51.00;;;12.03;50.72;94684.09;4955932;28;20117;-69
2021/04/29 00:04:12;;;;;;;14.30;7.40;;;13.10;52.00;;;12.04;49.49;94687.53;4988531;28;20034;-68
2021/04/29 00:06:38;;;;;;;18.30;8.52;;;13.20;52.90;;;12.02;50.23;94690.41;4974221;28;20039;-68
2021/04/29 00:09:04;;;;;;;13.15;7.97;;;13.10;53.90;;;12.05;51.92;94703.09;4963560;28;20042;-68
2021/04/29 00:11:31;;;;;;;12.70;8.00;;;13.30;53.80;;;12.07;50.90;94698.41;4992791;28;20108;-68
2021/04/29 00:13:57;;;;;;;12.70;7.70;;;13.30;54.00;;;12.07;50.96;94703.66;4956531;28;20042;-68
2021/04/29 00:16:23;;;;;;;11.70;7.85;;;13.20;54.50;;;12.06;52.38;94702.06;4955896;28;20048;-68
2021/04/29 00:18:49;;;;;;;16.70;8.32;;;13.30;54.30;;;12.07;51.20;94698.41;4956442;28;20105;-68
2021/04/29 00:21:14;;;;;;;13.05;7.70;;;13.30;54.40;;;12.09;51.91;94701.59;4972464;28;20048;-68
2021/04/29 00:23:40;;;;;;;13.65;7.47;;;13.30;54.70;;;12.11;51.48;94701.38;5006906;28;20442;-68
2021/04/29 00:26:06;;;;;;;9.85;7.30;;;13.40;54.70;;;12.15;52.92;94711.22;4988718;28;20528;-68
2021/04/29 00:28:32;;;;;;;12.20;7.53;;;13.50;54.70;;;12.16;52.44;94710.19;4987923;28;20038;-68
2021/04/29 00:30:57;;;;;;;9.20;6.47;;;13.50;54.80;;;12.17;53.13;94711.78;5004558;28;20577;-68
2021/04/29 00:33:23;;;;;;;10.55;7.40;;;13.60;55.10;;;12.17;53.62;94709.13;4988848;28;20034;-68
2021/04/29 00:35:49;;;;;;;10.88;7.32;;;13.50;55.70;;;12.17;53.11;94718.88;5005826;28;20093;-69
2021/04/29 00:38:16;;;;;;;10.48;7.18;;;13.50;56.40;;;12.19;53.37;94720.25;4955936;28;20188;-68
2021/04/29 00:40:42;;;;;;;9.90;6.65;;;13.60;57.00;;;12.18;54.13;94726.56;4971786;28;20390;-68
2021/04/29 00:43:10;;;;;;;9.93;7.05;;;13.50;57.80;;;12.17;55.71;94727.59;4988460;28;20041;-68
2021/04/29 00:45:36;;;;;;;10.73;6.78;;;13.40;58.30;;;12.20;54.17;94729.75;4972337;28;20683;-68
2021/04/29 00:48:02;;;;;;;11.00;6.88;;;13.60;58.40;;;12.22;54.42;94726.88;4972073;28;20060;-68
2021/04/29 00:50:28;;;;;;;10.20;6.18;;;13.60;58.90;;;12.25;55.87;94732.53;4988292;28;20034;-68
2021/04/29 00:52:54;;;;;;;10.80;6.63;;;13.70;58.70;;;12.29;55.37;94732.06;5004649;28;20122;-69
2021/04/29 00:55:19;;;;;;;8.80;6.85;;;13.70;59.20;;;12.32;55.42;94731.59;4987749;28;20077;-69
2021/04/29 00:57:45;;;;;;;9.18;6.05;;;13.80;59.40;;;12.34;56.69;94726.88;4955827;28;20041;-68
2021/04/29 01:00:12;;;;;;;9.68;6.07;;;13.80;59.60;;;12.38;56.39;94726.16;4955416;28;20030;-69
2021/04/29 01:02:41;;;;;;;7.05;6.03;;;13.90;59.90;;;12.43;57.24;94723.63;4952533;28;20029;-68
2021/04/29 01:05:15;;;;;;;8.75;5.40;;;13.90;60.20;;;12.46;57.35;94730.28;4987450;28;20088;-68
2021/04/29 01:07:49;;;;;;;8.35;5.57;;;13.90;60.50;;;12.47;57.44;94729.25;4988023;28;20774;-68
2021/04/29 01:10:24;;;;;;;11.13;5.60;;;13.90;61.00;;;12.47;59.34;94734.53;4975699;28;20719;-69
2021/04/29 01:13:08;;;;;;;7.95;5.63;;;13.80;61.50;;;12.45;60.35;94731.34;4991783;28;20037;-68
2021/04/29 01:15:37;;;;;;;9.05;6.00;;;13.70;61.90;;;12.43;58.22;94725.47;4975352;28;20094;-68
2021/04/29 01:18:03;;;;;;;7.97;6.53;;;13.70;62.40;;;12.43;58.29;94736.00;4992167;28;20144;-68
2021/04/29 01:20:45;;;;;;;9.70;6.30;;;13.70;62.50;;;12.44;60.38;94740.25;4973999;28;20643;-68
2021/04/29 01:23:35;;;;;;;7.40;6.13;;;13.70;62.60;;;12.43;61.25;94741.28;4987176;28;20041;-69
2021/04/29 01:26:27;;;;;;;11.35;6.35;;;13.70;62.80;;;12.38;61.18;94746.47;5025058;23;20053;-72
2021/04/29 01:28:53;;;;;;;8.48;6.15;;;13.60;63.50;;;12.37;58.77;94755.41;4985002;28;20045;-74
2021/04/29 01:31:22;;;;;;;13.40;6.68;;;13.60;63.60;;;12.34;59.60;94758.50;4988277;28;20108;-73
2021/04/29 01:33:47;;;;;;;12.65;7.07;;;13.60;64.10;;;12.29;59.06;94753.16;4990505;28;20030;-74
2021/04/29 01:36:13;;;;;;;8.43;6.28;;;13.50;64.70;;;12.25;59.28;94758.88;4975766;28;20040;-73
2021/04/29 01:38:40;;;;;;;8.23;5.72;;;13.50;64.90;;;12.25;60.07;94763.34;5022163;28;20034;-73
2021/04/29 01:41:05;;;;;;;7.90;5.22;;;13.50;64.90;;;12.24;60.09;94759.91;5009720;28;20048;-74
2021/04/29 01:43:32;;;;;;;10.32;5.35;;;13.50;65.00;;;12.23;60.05;94765.44;5027285;28;20184;-75
2021/04/29 01:45:58;;;;;;;7.50;5.35;;;13.50;65.00;;;12.22;60.60;94764.63;5010643;28;20397;-74
2021/04/29 01:48:23;;;;;;;9.85;6.40;;;13.50;65.10;;;12.23;60.68;94766.22;5027146;28;20052;-73
2021/04/29 01:50:49;;;;;;;9.90;5.88;;;13.50;65.30;;;12.23;60.28;94762.78;5024541;28;20107;-73
2021/04/29 01:53:15;;;;;;;8.27;5.72;;;13.50;65.30;;;12.23;60.11;94766.22;5009092;28;20592;-74
2021/04/29 01:55:41;;;;;;;8.77;5.10;;;13.50;65.20;;;12.23;60.64;94766.22;4993927;28;20061;-73
2021/04/29 01:58:06;;;;;;;6.00;4.30;;;13.50;65.50;;;12.23;60.90;94771.50;5009576;28;20057;-73
2021/04/29 02:00:32;;;;;;;5.28;4.25;;;13.50;65.70;;;12.21;60.77;94759.56;5025657;28;20057;-73
2021/04/29 02:03:01;;;;;;;7.22;4.55;;;13.50;66.20;;;12.18;62.42;94763.47;5024283;28;20063;-73
2021/04/29 02:05:27;;;;;;;6.18;4.57;;;13.40;66.60;;;12.17;61.93;94772.41;4991696;28;20046;-74
2021/04/29 02:07:53;;;;;;;6.72;4.45;;;13.40;66.70;;;12.15;62.06;94769.19;4987363;28;20603;-74
2021/04/29 02:10:18;;;;;;;5.35;4.70;;;13.40;66.90;;;12.16;61.81;94770.00;5026330;28;20500;-73
2021/04/29 02:12:50;;;;;;;7.07;4.35;;;13.50;66.90;;;12.17;63.71;94767.13;5025920;28;20057;-73
2021/04/29 02:15:16;;;;;;;5.03;3.95;;;13.50;66.90;;;12.15;62.47;94769.19;4998640;28;20037;-73
2021/04/29 02:18:13;;;;;;;7.15;4.25;;;13.40;67.20;;;12.14;64.07;94767.59;5009926;28;20129;-73
2021/04/29 02:20:41;;;;;;;6.70;4.05;;;13.40;67.30;;;12.13;62.48;94770.47;5024459;28;20037;-73
2021/04/29 02:23:13;;;;;;;6.85;3.72;;;13.40;67.50;;;12.11;64.26;94773.34;5010087;28;20033;-73
2021/04/29 02:25:40;;;;;;;5.32;3.90;;;13.40;67.70;;;12.10;62.90;94777.00;4993427;28;20425;-73
2021/04/29 02:28:06;;;;;;;6.47;3.95;;;13.40;67.80;;;12.11;62.50;94769.91;5009295;28;20187;-74
2021/04/29 02:30:31;;;;;;;5.90;4.50;;;13.40;67.90;;;12.12;62.74;94774.94;5025509;28;20509;-73
2021/04/29 02:32:57;;;;;;;4.90;4.00;;;13.40;67.80;;;12.11;62.60;94768.06;5009477;28;20128;-73
2021/04/29 02:35:23;;;;;;;4.72;3.38;;;13.40;67.80;;;12.12;62.76;94763.59;5025835;28;20047;-73
2021/04/29 02:37:50;;;;;;;5.05;3.72;;;13.40;67.80;;;12.10;63.02;94761.19;5009357;28;20069;-74
2021/04/29 02:40:17;;;;;;;7.82;3.88;;;13.30;67.90;;;12.10;63.46;94766.47;5009110;28;20026;-73
2021/04/29 02:42:43;;;;;;;7.03;3.35;;;13.40;67.90;;;12.09;63.41;94764.84;5007809;28;20092;-73
2021/04/29 02:45:10;;;;;;;5.53;3.83;;;13.40;67.90;;;12.09;63.19;94762.22;5009557;28;20026;-74
2021/04/29 02:47:40;;;;;;;7.00;3.20;;;13.40;67.80;;;12.14;64.59;94766.78;5009266;28;20518;-73
2021/04/29 02:50:11;;;;;;;3.83;3.40;;;13.40;67.50;;;12.14;64.25;94761.53;4993352;28;20041;-73
2021/04/29 02:52:38;;;;;;;4.72;3.08;;;13.50;67.60;;;12.17;63.37;94767.13;5009801;28;20784;-73
2021/04/29 02:55:08;;;;;;;4.82;3.40;;;13.50;67.30;;;12.17;65.01;94761.84;5009748;28;20060;-74
2021/04/29 02:57:34;;;;;;;6.03;3.30;;;13.50;67.20;;;12.19;63.82;94759.78;5009526;28;20033;-74
2021/04/29 02:59:59;;;;;;;4.63;2.53;;;13.60;66.90;;;12.20;62.90;94766.66;5010326;28;20026;-73
2021/04/29 03:02:25;;;;;;;6.57;2.65;;;13.60;66.90;;;12.20;63.58;94771.13;5010614;28;20045;-73
2021/04/29 03:04:51;;;;;;;4.35;2.83;;;13.50;67.10;;;12.17;63.22;94775.03;5024374;28;20469;-73
2021/04/29 03:07:17;;;;;;;4.05;2.50;;;13.50;67.20;;;12.18;63.48;94776.63;4990333;28;20041;-73
2021/04/29 03:09:42;;;;;;;5.88;2.70;;;13.40;67.20;;;12.17;63.44;94777.66;4976483;28;20119;-74
2021/04/29 03:12:08;;;;;;;5.40;2.53;;;13.50;67.30;;;12.17;63.32;94777.66;5026673;28;20026;-73
2021/04/29 03:14:34;;;;;;;3.90;2.50;;;13.40;67.10;;;12.17;63.70;94776.88;5025727;28;20038;-71
2021/04/29 03:17:00;;;;;;;2.88;2.20;;;13.50;67.00;;;12.18;63.58;94784.53;5008798;28;20155;-71
2021/04/29 03:19:26;;;;;;;3.47;2.05;;;13.50;67.00;;;12.19;62.99;94780.88;5018154;28;20053;-69
2021/04/29 03:21:51;;;;;;;3.30;2.13;;;13.60;66.80;;;12.21;63.07;94784.06;5022822;28;20067;-72
2021/04/29 03:24:17;;;;;;;3.95;1.80;;;13.60;66.50;;;12.22;62.76;94780.44;5025006;28;20767;-69
2021/04/29 03:26:43;;;;;;;4.82;2.08;;;13.50;66.80;;;12.23;63.03;94781.25;5025482;28;20528;-70
2021/04/29 03:29:09;;;;;;;4.47;1.95;;;13.50;66.80;;;12.23;63.42;94792.59;5000782;28;20144;-70
2021/04/29 03:31:34;;;;;;;3.38;1.77;;;13.50;66.80;;;12.23;63.72;94797.84;5008679;28;20073;-72
2021/04/29 03:34:00;;;;;;;3.47;1.42;;;13.50;66.90;;;12.24;63.30;94788.91;4991313;28;20029;-71
2021/04/29 03:36:26;;;;;;;3.05;1.70;;;13.50;67.10;;;12.24;63.89;94793.38;5025037;28;20520;-71
2021/04/29 03:38:52;;;;;;;3.10;1.50;;;13.50;67.20;;;12.26;63.97;94801.88;4992012;28;21813;-71
2021/04/29 03:41:18;;;;;;;2.03;1.33;;;13.50;67.20;;;12.26;64.05;94807.13;5024760;28;20041;-71
2021/04/29 03:43:44;;;;;;;2.53;1.20;;;13.50;67.20;;;12.25;63.59;94805.53;5008817;28;20057;-72
2021/04/29 03:46:10;;;;;;;2.65;1.30;;;13.60;67.20;;;12.26;63.96;94807.94;5008104;28;20030;-71
2021/04/29 03:48:35;;;;;;;2.58;1.50;;;13.60;66.90;;;12.26;63.71;94805.31;5023206;28;20057;-71
2021/04/29 03:51:01;;;;;;;2.20;1.20;;;13.60;66.80;;;12.26;63.96;94801.88;5002870;28;20037;-71
2021/04/29 03:53:27;;;;;;;1.70;1.20;;;13.60;66.80;;;12.29;63.11;94803.25;5024642;28;20068;-71
2021/04/29 03:55:53;;;;;;;2.55;1.10;;;13.60;66.60;;;12.27;63.56;94806.91;5008720;28;20061;-71
2021/04/29 03:58:18;;;;;;;3.00;1.10;;;13.60;66.80;;;12.26;63.11;94801.88;5008938;28;20704;-70
2021/04/29 04:00:44;;;;;;;1.50;0.90;;;13.60;67.10;;;12.24;63.89;94803.94;5024194;28;20029;-72
2021/04/29 04:03:10;;;;;;;2.47;1.00;;;13.50;67.30;;;12.22;64.17;94796.25;5012238;28;20611;-71
2021/04/29 04:05:36;;;;;;;3.67;1.02;;;13.50;67.50;;;12.21;64.47;94805.16;4975888;28;20535;-71
2021/04/29 04:08:01;;;;;;;2.47;0.88;;;13.40;67.70;;;12.21;64.22;94813.06;5024059;28;20075;-71
2021/04/29 04:10:27;;;;;;;1.30;0.90;;;13.50;67.70;;;12.21;64.23;94809.63;5007869;28;20128;-70
2021/04/29 04:12:53;;;;;;;2.90;0.80;;;13.50;67.90;;;12.22;64.36;94819.16;5024190;28;20052;-72
2021/04/29 04:15:18;;;;;;;0.80;0.65;;;13.50;67.80;;;12.22;63.83;94819.97;5008370;28;20151;-71
2021/04/29 04:17:44;;;;;;;2.80;0.88;;;13.50;68.00;;;12.22;64.51;94827.88;5026297;28;20116;-71
2021/04/29 04:20:11;;;;;;;0.70;0.52;;;13.60;68.00;;;12.20;64.79;94824.66;5008696;28;20497;-72
2021/04/29 04:22:36;;;;;;;0.65;0.55;;;13.40;68.30;;;12.21;64.31;94831.53;4991693;28;20025;-72
2021/04/29 04:25:04;;;;;;;1.02;0.70;;;13.60;68.00;;;12.21;64.64;94836.00;5024338;28;20347;-71
2021/04/29 04:27:29;;;;;;;5.07;0.60;;;13.40;68.30;;;12.20;64.41;94832.56;5023661;28;20120;-71
2021/04/29 04:29:55;;;;;;;4.30;0.60;;;13.50;68.10;;;12.20;64.21;94835.19;5015745;28;20065;-72
2021/04/29 04:32:21;;;;;;;1.75;0.98;;;13.60;68.00;;;12.21;64.63;94839.44;5025226;28;20033;-71
2021/04/29 04:34:46;;;;;;;0.95;0.80;;;13.60;68.10;;;12.23;64.90;94842.69;5024722;28;20461;-73
2021/04/29 04:37:12;;;;;;;0.75;0.57;;;13.60;68.00;;;12.22;64.61;94837.59;5023112;28;20585;-73
2021/04/29 04:39:38;;;;;;;1.40;0.70;;;13.50;68.30;;;12.20;65.33;94848.38;5007713;28;20103;-71
2021/04/29 04:42:04;;;;;;;0.73;0.60;;;13.50;68.20;;;12.21;64.85;94849.97;5007304;28;20037;-72
2021/04/29 04:44:30;;;;;;;1.73;0.60;;;13.50;68.40;;;12.22;64.71;94851.63;5027405;28;20049;-70
2021/04/29 04:46:56;;;;;;;2.15;0.68;;;13.50;68.30;;;12.21;64.66;94857.91;5028349;28;20135;-71
2021/04/29 04:49:21;;;;;;;3.90;0.80;;;13.50;68.60;;;12.22;65.60;94864.81;5028331;28;20025;-71
2021/04/29 04:51:47;;;;;;;2.08;0.70;;;13.50;68.80;;;12.23;64.99;94857.69;5011759;28;20124;-71
2021/04/29 04:54:15;;;;;;;1.23;0.77;;;13.60;68.70;;;12.24;65.27;94872.47;5022848;28;20042;-70
2021/04/29 04:56:41;;;;;;;1.15;0.80;;;13.60;69.00;;;12.26;65.57;94873.84;4988403;28;20037;-71
2021/04/29 04:59:07;;;;;;;1.42;0.75;;;13.60;68.70;;;12.31;65.49;94872.34;4977236;28;20030;-67
2021/04/29 05:01:32;;;;;;;0.65;0.63;;;13.70;68.60;;;12.34;65.10;94877.16;5009996;28;20426;-71
2021/04/29 05:03:58;;;;;;;1.10;0.68;;;13.70;68.60;;;12.40;64.85;94882.31;5026623;28;20658;-70
2021/04/29 05:06:24;;;;;;;0.98;0.70;;;13.90;68.10;;;12.45;65.86;94879.81;5027192;28;20069;-68
2021/04/29 05:08:49;;;;;;;0.52;0.50;;;13.80;68.40;;;12.46;65.83;94891.16;5025983;28;20085;-68
2021/04/29 05:11:15;;;;;;;1.38;0.80;;;13.80;68.50;;;12.48;65.20;94889.09;5001282;28;20068;-66
2021/04/29 05:13:41;;;;;;;1.17;0.80;;;13.90;68.00;;;12.50;65.01;94893.09;5029306;28;20056;-67
2021/04/29 05:16:07;;;;;;;1.75;0.70;;;13.90;68.20;;;12.53;65.32;94883.94;5013994;28;20034;-66
2021/04/29 05:18:33;;;;;;;0.95;0.65;;;13.90;68.10;;;12.57;64.97;94887.72;4996323;28;20073;-66
2021/04/29 05:20:58;;;;;;;4.22;0.63;;;14.00;67.90;;;12.63;65.75;94892.06;4999767;28;20062;-66
2021/04/29 05:23:24;;;;;;;3.85;0.75;;;14.10;68.20;;;12.66;65.30;94891.59;4986739;28;20033;-71
2021/04/29 05:25:50;;;;;;;4.65;2.50;;;14.10;68.00;;;12.69;65.03;94888.50;5016256;28;20053;-67
2021/04/29 05:28:15;;;;;;;2.83;0.90;;;14.10;68.20;;;12.72;65.39;94895.97;5031257;28;20049;-66
2021/04/29 05:30:41;;;;;;;1.83;0.80;;;14.10;67.90;;;12.72;65.60;94901.22;5030638;28;20103;-66
2021/04/29 05:33:07;;;;;;;1.95;0.63;;;14.10;67.90;;;12.74;65.29;94898.38;5000018;28;20178;-66
2021/04/29 05:35:33;;;;;;;1.65;0.85;;;14.10;68.10;;;12.76;65.32;94891.81;5024116;28;20462;-67
2021/04/29 05:37:59;;;;;;;1.02;0.80;;;14.20;67.50;;;12.77;65.79;94903.97;5029637;28;20064;-66
2021/04/29 05:40:25;;;;;;;1.20;0.65;;;14.10;67.30;;;12.80;65.33;94887.69;5030299;28;20025;-66
2021/04/29 05:42:51;;;;;;;3.75;0.73;;;14.20;67.30;;;12.83;65.24;94894.31;5030068;28;20044;-66
2021/04/29 05:45:16;;;;;;;2.47;0.90;;;14.10;67.10;;;12.82;64.65;94896.16;5013327;28;20033;-67
2021/04/29 05:47:42;;;;;;;2.53;1.38;;;14.20;67.10;;;12.79;65.10;94904.53;5029335;28;20037;-67
2021/04/29 05:50:09;;;;;;;1.90;1.08;;;14.10;67.70;;;12.82;65.61;94900.63;5029835;28;20115;-66
2021/04/29 05:52:35;;;;;;;2.15;0.93;;;14.20;67.60;;;12.85;65.15;94902.81;5028530;28;20030;-67
2021/04/29 05:55:00;;;;;;;2.03;1.10;;;14.30;67.50;;;12.86;65.42;94907.06;5018832;28;20056;-69
2021/04/29 05:57:26;;;;;;;2.00;0.80;;;14.20;68.20;;;12.85;65.78;94906.25;4990581;28;20061;-66
2021/04/29 05:59:52;;;;;;;2.30;0.88;;;14.20;68.20;;;12.87;65.79;94904.19;5029670;28;20061;-67
2021/04/29 06:02:17;;;;;;;2.53;0.90;;;14.30;67.50;;;12.92;65.16;94906.16;5029286;28;20053;-68
2021/04/29 06:04:43;;;;;;;1.42;0.82;;;14.40;67.90;;;12.94;65.76;94908.56;5011616;28;20029;-68
2021/04/29 06:07:10;;;;;;;1.90;1.25;;;14.40;66.70;;;13.01;65.33;94923.22;4963636;28;20109;-68
2021/04/29 06:09:36;;;;;;;1.40;1.00;;;14.60;66.80;;;13.02;65.02;94908.19;5015095;28;20038;-67
2021/04/29 06:12:02;;;;;;;1.30;0.70;;;14.50;66.50;;;13.08;65.00;94920.44;5013013;28;20408;-68
2021/04/29 06:14:27;;;;;;;3.67;1.20;;;14.60;65.70;;;13.12;64.06;94911.00;5013375;28;20048;-67
2021/04/29 06:16:53;;;;;;;1.65;0.85;;;14.60;64.40;;;13.17;64.01;94919.06;5012427;28;20060;-67
2021/04/29 06:19:19;;;;;;;1.20;0.75;;;14.70;64.10;;;13.19;64.00;94919.66;5026001;28;20033;-66
2021/04/29 06:21:45;;;;;;;1.50;0.90;;;14.70;63.90;;;13.25;63.51;94926.63;4984205;28;20375;-68
2021/04/29 06:24:12;;;;;;;1.65;0.90;;;14.90;63.50;;;13.34;63.56;94930.50;5007968;28;20041;-66
2021/04/29 06:26:37;;;;;;;1.13;0.80;;;15.00;62.80;;;13.40;63.25;94934.88;5004807;28;20025;-68
2021/04/29 06:29:03;;;;;;;1.65;0.80;;;15.00;62.70;;;13.44;62.99;94935.19;5012327;28;20044;-69
2021/04/29 06:31:29;;;;;;;1.35;0.90;;;14.90;62.90;;;13.48;63.09;94941.59;4980455;28;20040;-66
2021/04/29 06:33:55;;;;;;;1.95;0.98;;;14.90;62.40;;;13.47;62.57;94935.53;5005831;28;20038;-66
2021/04/29 06:36:20;;;;;;;2.10;0.93;;;14.90;61.70;;;13.47;62.65;94946.09;5015958;28;20026;-69
2021/04/29 06:38:46;;;;;;;3.03;0.88;;;14.90;62.00;;;13.53;62.07;94954.09;4992851;28;20582;-69
2021/04/29 06:41:12;;;;;;;1.63;0.90;;;14.90;60.80;;;13.47;61.66;94956.66;4993595;28;20527;-66
2021/04/29 06:43:38;;;;;;;2.05;0.82;;;14.70;61.20;;;13.47;61.54;94951.38;5012893;28;20461;-68
2021/04/29 06:46:03;;;;;;;2.97;1.08;;;14.80;61.10;;;13.49;61.43;94965.16;5028978;28;20159;-68
2021/04/29 06:48:29;;;;;;;4.20;1.40;;;14.80;60.70;;;13.45;60.82;94964.00;5027738;28;20455;-68
2021/04/29 06:50:55;;;;;;;3.55;0.80;;;14.70;61.20;;;13.45;61.59;94966.66;4993265;28;20061;-71
2021/04/29 06:53:21;;;;;;;2.20;1.10;;;14.70;61.10;;;13.43;60.87;94976.66;4996070;28;20057;-69
2021/04/29 06:55:48;;;;;;;2.88;0.90;;;14.70;61.20;;;13.42;61.04;94980.34;5008832;28;20033;-70
2021/04/29 06:58:13;;;;;;;3.03;0.80;;;14.70;61.40;;;13.47;60.70;94984.91;5020986;28;20045;-66
2021/04/29 07:00:39;;;;;;;3.67;0.80;;;14.80;60.50;;;13.45;60.76;94982.50;5006950;28;20034;-66
2021/04/29 07:03:05;;;;;;;1.70;0.80;;;14.70;60.90;;;13.49;60.71;94985.47;5010375;28;20368;-67
2021/04/29 07:05:31;;;;;;;2.13;0.80;;;14.80;61.00;;;13.47;61.16;94988.34;5010334;28;20033;-66
2021/04/29 07:07:56;;;;;;;2.20;0.85;;;14.80;60.80;;;13.49;60.94;94994.19;5024317;28;20088;-66
2021/04/29 07:10:23;;;;;;;2.05;0.85;;;14.90;60.50;;;13.49;60.34;94993.41;5026658;28;20162;-65
2021/04/29 07:12:49;;;;;;;2.95;0.90;;;14.80;60.50;;;13.51;60.91;94995.81;5002141;28;20042;-65
2021/04/29 07:15:15;;;;;;;1.83;1.00;;;14.90;60.30;;;13.55;60.10;95000.38;4995883;28;20554;-68
2021/04/29 07:17:44;;;;;;;5.53;1.33;;;15.00;59.70;;;13.57;60.02;94998.31;4995379;28;20041;-65
2021/04/29 07:20:10;;;;;;;2.13;1.00;;;15.10;59.20;;;13.63;60.00;95007.16;5028903;28;20036;-68
2021/04/29 07:22:36;;;;;;;3.33;1.20;;;15.10;59.10;;;13.67;60.33;94998.53;5027361;28;20034;-65
2021/04/29 07:25:04;;;;;;;1.40;0.98;;;15.20;59.20;;;13.74;59.50;95008.94;5017505;28;20560;-65
2021/04/29 07:27:30;;;;;;;5.55;1.45;;;15.20;58.60;;;13.79;59.08;95001.91;4987443;28;20116;-66
2021/04/29 07:29:55;;;;;;;3.28;1.10;;;15.30;58.20;;;13.92;59.27;95007.97;5012054;28;20087;-65
2021/04/29 07:32:21;;;;;;;4.28;1.10;;;15.60;58.10;;;13.99;59.10;95011.25;5011802;28;20510;-66
2021/04/29 07:34:47;;;;;;;1.75;1.08;;;15.50;57.30;;;13.97;58.46;95019.44;4985272;28;20030;-66
2021/04/29 07:37:12;;;;;;;2.70;1.10;;;15.40;56.70;;;14.02;58.59;95027.44;5017705;28;20096;-69
2021/04/29 07:39:38;;;;;;;3.50;1.45;;;15.60;56.60;;;14.07;57.97;95030.22;4993183;28;20034;-69
2021/04/29 07:42:04;;;;;;;1.67;1.00;;;15.60;55.40;;;14.08;58.23;95028.38;5020110;28;20507;-66
2021/04/29 07:44:30;;;;;;;3.25;1.02;;;15.50;55.90;;;14.11;57.92;95041.13;5011740;28;20108;-68
2021/04/29 07:46:56;;;;;;;3.88;2.00;;;15.40;56.00;;;14.09;56.73;95038.72;5010232;28;20029;-66
2021/04/29 07:49:21;;;;;;;5.88;1.63;;;15.40;56.30;;;14.03;57.10;95044.94;5029179;28;20037;-66
2021/04/29 07:51:47;;;;;;;5.63;1.25;;;15.40;55.70;;;14.01;56.99;95054.94;5010912;28;20061;-69
2021/04/29 07:54:14;;;;;;;6.30;1.30;;;15.30;56.10;;;13.92;57.28;95048.44;4988251;28;20129;-67
2021/04/29 07:56:41;;;;;;;1.95;1.10;;;15.10;56.20;;;13.86;56.54;95049.38;5006191;28;20117;-70
2021/04/29 07:59:07;;;;;;;3.55;1.20;;;15.10;56.40;;;13.85;56.87;95047.78;5003124;28;20560;-68
2021/04/29 08:01:32;;;;;;;3.78;1.40;;;15.10;56.10;;;13.74;56.75;95061.81;5022953;28;20061;-69
2021/04/29 08:04:01;;;;;;;3.88;1.35;;;14.80;55.90;;;13.60;56.53;95056.00;4994302;28;20528;-70
2021/04/29 08:06:28;;;;;;;3.72;2.08;;;14.60;56.40;;;13.49;56.52;95052.31;5010967;28;20072;-67
2021/04/29 08:08:55;;;;;;;3.75;1.60;;;14.60;56.10;;;13.40;56.78;95060.84;4992809;28;20550;-67
2021/04/29 08:11:21;;;;;;;3.47;1.70;;;14.40;56.30;;;13.37;56.61;95056.84;4978663;28;20049;-69
2021/04/29 08:13:46;;;;;;;5.00;1.38;;;14.60;55.70;;;13.37;56.52;95069.22;5011278;28;20075;-67
2021/04/29 08:16:12;;;;;;;4.43;1.60;;;14.70;56.10;;;13.38;56.96;95063.72;5009352;28;20082;-68
2021/04/29 08:18:38;;;;;;;2.42;1.27;;;14.80;56.00;;;13.42;56.92;95064.84;5002018;28;20120;-69
2021/04/29 08:21:05;;;;;;;3.30;1.48;;;14.90;55.90;;;13.49;56.92;95070.00;5026740;28;20030;-67
2021/04/29 08:23:31;;;;;;;4.97;1.85;;;14.90;55.80;;;13.48;56.53;95082.41;4974098;28;20030;-72
2021/04/29 08:25:56;;;;;;;3.47;1.65;;;14.90;55.40;;;13.49;56.81;95084.03;5010856;28;20384;-69
2021/04/29 08:28:22;;;;;;;2.35;1.25;;;14.90;55.60;;;13.47;56.94;95088.72;4994365;28;20033;-69
2021/04/29 08:30:48;;;;;;;4.35;1.73;;;14.80;56.00;;;13.51;56.98;95088.25;5027426;28;20037;-70
2021/04/29 08:33:14;;;;;;;2.30;1.65;;;14.90;56.10;;;13.55;56.57;95094.69;5010899;28;20038;-68
2021/04/29 08:35:40;;;;;;;3.08;1.70;;;15.00;55.60;;;13.60;56.87;95102.75;4993749;28;20076;-68
2021/04/29 08:38:05;;;;;;;7.07;3.80;;;15.20;55.40;;;13.64;56.58;95098.59;5026587;28;20540;-70
2021/04/29 08:40:31;;;;;;;5.57;2.60;;;15.10;55.40;;;13.67;56.56;95098.94;5027114;28;20106;-70
2021/04/29 08:42:57;;;;;;;3.35;1.80;;;15.30;55.30;;;13.69;56.15;95106.63;5027124;28;20034;-70
2021/04/29 08:45:23;;;;;;;3.13;1.63;;;15.10;55.00;;;13.67;55.82;95106.06;5026991;28;20037;-70
2021/04/29 08:47:54;;;;;;;4.70;1.95;;;15.10;54.50;;;13.66;56.02;95115.03;5026423;28;20040;-70
2021/04/29 08:50:21;;;;;;;4.72;2.25;;;15.00;55.10;;;13.68;56.30;95118.25;5026831;28;20501;-68
2021/04/29 08:52:47;;;;;;;5.07;1.92;;;15.10;54.80;;;13.71;55.61;95120.41;5010004;28;20405;-68
2021/04/29 08:55:22;;;;;;;4.60;2.10;;;15.10;54.40;;;13.67;55.54;95117.44;5010300;28;20065;-68
2021/04/29 08:57:47;;;;;;;6.78;2.10;;;15.10;53.90;;;13.67;55.15;95121.91;5009364;28;20104;-69
2021/04/29 09:00:14;;;;;;;2.08;1.67;;;15.10;53.60;;;13.63;55.09;95129.50;4991632;28;20617;-72
2021/04/29 09:02:40;;;;;;;4.22;2.13;;;14.90;54.10;;;13.63;55.69;95128.69;5010147;28;20033;-66
2021/04/29 09:05:21;;;;;;;7.10;2.88;;;15.10;54.50;;;13.67;55.80;95124.56;5027251;28;20049;-72
2021/04/29 09:08:01;;;;;;;6.22;2.83;;;15.10;54.20;;;13.68;55.90;95120.88;5025682;28;20178;-68
2021/04/29 09:10:42;;;;;;;4.65;2.70;;;15.10;54.30;;;13.71;55.15;95121.22;5010643;28;20056;-71
2021/04/29 09:13:19;;;;;;;4.40;2.05;;;15.20;53.10;;;13.70;55.10;95121.44;5026282;28;20056;-70
2021/04/29 09:15:45;;;;;;;4.30;2.38;;;15.10;53.20;;;13.73;55.07;95123.63;5010497;28;20052;-69
2021/04/29 09:18:20;;;;;;;4.85;2.60;;;15.30;52.60;;;13.75;53.82;95121.53;5009895;28;20049;-69
2021/04/29 09:21:03;;;;;;;4.80;2.63;;;15.30;52.10;;;13.83;54.10;95121.22;4979121;28;20038;-74
2021/04/29 09:23:31;;;;;;;5.22;2.58;;;15.50;51.70;;;13.83;53.85;95118.56;4995033;28;20034;-70
2021/04/29 09:25:59;;;;;;;6.30;2.72;;;15.30;50.60;;;13.87;53.77;95113.63;5010151;28;20033;-74
2021/04/29 09:28:40;;;;;;;4.07;2.53;;;15.50;50.80;;;13.96;53.96;95115.66;5003743;28;20034;-70
2021/04/29 09:31:11;;;;;;;9.50;2.78;;;15.60;51.30;;;14.10;53.88;95114.34;5009805;28;20412;-74
2021/04/29 09:33:40;;;;;;;5.45;3.28;;;15.90;50.80;;;14.25;52.84;95110.38;5031269;28;20049;-73
2021/04/29 09:36:07;;;;;;;4.20;2.60;;;16.10;49.40;;;14.35;53.40;95111.38;5013508;28;20500;-70
2021/04/29 09:38:39;;;;;;;4.93;2.60;;;16.20;50.10;;;14.54;52.15;95114.69;5030142;28;20041;-70
2021/04/29 09:41:07;;;;;;;6.70;3.55;;;16.40;48.80;;;14.52;51.96;95116.75;5009923;28;20591;-68
2021/04/29 09:43:34;;;;;;;6.60;3.47;;;16.10;48.80;;;14.55;52.80;95116.28;4994357;28;20045;-70
2021/04/29 09:46:03;;;;;;;3.45;2.50;;;16.20;48.90;;;14.66;52.08;95110.13;5007922;28;20175;-69
2021/04/29 09:48:37;;;;;;;5.53;3.13;;;16.50;48.40;;;14.83;52.34;95107.50;4996525;28;20573;-69
2021/04/29 09:51:05;;;;;;;5.55;2.90;;;16.80;48.50;;;14.92;50.29;95102.59;5009708;28;20050;-70
2021/04/29 09:53:48;;;;;;;8.15;4.32;;;16.60;45.90;;;15.05;50.61;95104.13;4994667;28;20067;-69
2021/04/29 09:56:14;;;;;;;6.05;3.53;;;16.90;47.10;;;15.22;51.36;95100.44;5008816;28;20080;-67
2021/04/29 09:58:47;;;;;;;6.57;3.17;;;17.20;46.60;;;15.35;51.23;95088.69;4996072;28;20026;-66
2021/04/29 10:01:13;;;;;;;7.10;3.30;;;17.30;45.00;;;15.50;50.72;95090.78;5019077;28;20030;-74
2021/04/29 10:03:41;;;;;;;7.13;3.40;;;17.50;44.00;;;15.62;49.07;95088.88;5005276;28;20117;-70
2021/04/29 10:06:09;;;;;;;6.90;3.10;;;17.60;44.40;;;15.75;48.70;95088.50;5006519;28;20092;-71
2021/04/29 10:08:35;;;;;;;5.70;3.58;;;17.60;44.60;;;15.90;48.79;95095.84;5009820;28;20061;-69
2021/04/29 10:11:03;;;;;;;7.93;3.63;;;17.90;44.80;;;15.92;48.32;95088.44;5024443;28;20092;-72
2021/04/29 10:13:31;;;;;;;7.05;3.55;;;17.60;44.30;;;15.95;47.25;95087.16;5013031;28;20034;-71
2021/04/29 10:15:57;;;;;;;6.18;3.28;;;17.40;43.80;;;16.01;48.03;95086.94;5030442;28;20521;-70
2021/04/29 10:18:23;;;;;;;5.32;3.30;;;17.70;43.00;;;16.11;47.75;95096.91;5029094;28;20191;-70